Newcastle, Wyoming
Current Conditions -  °F | °C
As of 1:35 AM on Saturday 20 Dec 2014 (Local Time) from KECS Reporting Station
Clear Clear  
Wind Chill: 23°   Ceiling: Unl
Heat Index: 23°   Visibility: 10mi
Dew Point: 19°   Wind: 0mph
Humidity: 86%   Direction: NA
Pressure: 29.94"   Gusts: NA
Location:  43.85°N, 104.2°W
Report Text: KECS 200835Z AUTO 00000KT 10SM CLR M05/M07 A2994 RMK AO2
Loading
Personal Weather Stations






























Interactive Weather Map New forecast layout! Learn more

10-Day Weather Forecast

Advertisements
Track Severe Weather on mobile